»·PEaware :: N413C KSBA-KOXR

N413C :: KSBA-KOXR

FLIGHT INFORMATION

Flight Status: Arrived
Operator: Privately registered:
United States
More flights under this callsign
Pilot: Alec D. (17934)
Aircraft: BEECH AIRCRAFT BONANZA
(BE35)
More flights by this aircraft type
Origin: KSBA Santa Barbara Mun
United States
Destination: KOXR Oxnard
United States
More flights between these airports :: More routes between these airports
Route: KWANG CMA
File this flight plan on PilotEdge
Remarks:
Altitude:
(Current/Filed)
3,000ft
Speed:
(Current/Filed)
160kts
Departed: 28-Jul-20 07:23 AM
Arrived: 28-Jul-20 07:54 AM
Distance/Time
Traveled:
34nm/0:31
Distance/Time
To Go:
Arrived

Flight Plot

Page will automatically refresh every two minutes.


Map Options




Map Legend


Flown Route
Filed Route
Departure Airport
Arrival Airport
Navaid (VOR, NDB)
Fix

Horizontal Profiles

Position Reports

Time Latitude Longitude Heading Altitude Ground
Speed
28-Jul-20 07:05 34.424495 -119.836026 72 13ft 0kts
28-Jul-20 07:06 34.424495 -119.836026 72 13ft 0kts
28-Jul-20 07:07 34.424496 -119.836022 72 13ft 0kts
28-Jul-20 07:08 34.424499 -119.836012 72 13ft 0kts
28-Jul-20 07:09 34.424501 -119.836003 72 13ft 0kts
28-Jul-20 07:10 34.424503 -119.835995 72 13ft 0kts
28-Jul-20 07:11 34.424505 -119.835987 72 13ft 0kts
28-Jul-20 07:12 34.424507 -119.835979 72 13ft 0kts
28-Jul-20 07:13 34.424662 -119.836015 301 13ft 6kts
28-Jul-20 07:14 34.426810 -119.838702 266 13ft 12kts
28-Jul-20 07:15 34.426692 -119.844322 268 13ft 18kts
28-Jul-20 07:16 34.426624 -119.850006 299 13ft 13kts
28-Jul-20 07:17 34.426788 -119.850544 237 13ft 0kts
28-Jul-20 07:18 34.426783 -119.850553 237 13ft 0kts
28-Jul-20 07:19 34.426652 -119.851464 288 13ft 11kts
28-Jul-20 07:20 34.426852 -119.851822 344 13ft 0kts
28-Jul-20 07:21 34.426963 -119.851832 1 13ft 4kts
28-Jul-20 07:22 34.427796 -119.836874 91 229ft 98kts
28-Jul-20 07:23 34.412602 -119.807783 134 1437ft 109kts
28-Jul-20 07:24 34.390652 -119.781453 133 2476ft 112kts
28-Jul-20 07:25 34.366473 -119.752002 132 3031ft 138kts
28-Jul-20 07:26 34.337746 -119.716549 135 3033ft 153kts
28-Jul-20 07:27 34.319649 -119.671916 99 3058ft 153kts
28-Jul-20 07:28 34.312781 -119.620555 94 3017ft 155kts
28-Jul-20 07:29 34.305330 -119.569372 98 3039ft 153kts
28-Jul-20 07:30 34.301380 -119.522988 95 3987ft 133kts
28-Jul-20 07:31 34.297005 -119.474139 96 4063ft 149kts
28-Jul-20 07:32 34.294018 -119.422518 93 4029ft 156kts
28-Jul-20 07:33 34.291231 -119.370207 93 4036ft 156kts
28-Jul-20 07:34 34.287894 -119.317719 93 4041ft 157kts
28-Jul-20 07:35 34.284914 -119.264986 94 4051ft 158kts
28-Jul-20 07:36 34.280405 -119.211057 94 4010ft 161kts
28-Jul-20 07:37 34.276887 -119.158319 92 3956ft 155kts
28-Jul-20 07:38 34.274730 -119.106536 92 3975ft 156kts
28-Jul-20 07:39 34.272075 -119.054712 91 4015ft 154kts
28-Jul-20 07:40 34.271248 -119.002449 88 3980ft 156kts
28-Jul-20 07:41 34.271454 -118.950234 90 4016ft 154kts
28-Jul-20 07:42 34.266192 -118.898732 99 4113ft 156kts
28-Jul-20 07:43 34.249126 -118.852228 161 3978ft 160kts
28-Jul-20 07:44 34.217981 -118.880637 247 3716ft 151kts
28-Jul-20 07:45 34.202088 -118.924072 243 3765ft 133kts
28-Jul-20 07:46 34.198841 -118.967563 272 3788ft 127kts
28-Jul-20 07:47 34.198834 -119.009777 267 3196ft 116kts
28-Jul-20 07:48 34.199560 -119.048252 272 2549ft 115kts
28-Jul-20 07:49 34.200005 -119.086096 270 1864ft 111kts
28-Jul-20 07:50 34.200373 -119.123222 269 1306ft 109kts
28-Jul-20 07:51 34.200427 -119.159851 269 703ft 108kts
28-Jul-20 07:52 34.200722 -119.193188 269 227ft 80kts
28-Jul-20 07:53 34.200730 -119.210912 251 46ft 12kts
28-Jul-20 07:54 34.199743 -119.211107 90 46ft 13kts
28-Jul-20 07:55 34.199303 -119.208259 181 46ft 0kts

Navigation Log

Ident Type
Flight plan parsing failed, navigation log unavailable